createdAt,value
2022-12-19T08:21:10.933Z,94.70
2022-12-19T08:23:41.479Z,95.10
2022-12-19T08:26:14.595Z,95.00
2022-12-19T08:28:42.516Z,94.80
2022-12-19T08:31:15.411Z,95.20
2022-12-19T08:33:42.825Z,95.50
2022-12-19T08:36:14.841Z,95.40
2022-12-19T08:38:42.108Z,95.10
2022-12-19T08:41:12.027Z,95.30
2022-12-19T08:43:39.080Z,95.50
2022-12-19T08:46:06.555Z,97.50
2022-12-19T08:48:34.665Z,99.90
2022-12-19T08:51:04.673Z,99.90
2022-12-19T08:53:34.629Z,98.50
2022-12-19T08:56:11.445Z,99.90
2022-12-19T08:58:38.374Z,99.90
2022-12-19T09:01:10.638Z,99.90
2022-12-19T09:03:55.467Z,95.70
2022-12-19T09:06:25.811Z,96.20
2022-12-19T09:08:52.995Z,98.40
2022-12-19T09:11:21.551Z,96.90
2022-12-19T09:13:48.964Z,96.60
2022-12-19T09:16:18.491Z,96.40
2022-12-19T09:18:48.745Z,96.30
2022-12-19T09:21:17.648Z,97.30
2022-12-19T09:23:49.647Z,97.70
2022-12-19T09:26:17.093Z,96.00
2022-12-19T09:28:48.311Z,95.90
2022-12-19T09:31:18.451Z,98.50
2022-12-19T09:33:46.716Z,99.90
2022-12-19T09:36:22.988Z,99.90
2022-12-19T09:38:51.095Z,99.90
2022-12-19T09:41:44.904Z,97.00
2022-12-19T09:44:14.725Z,99.90
2022-12-19T09:46:50.799Z,99.90
2022-12-19T09:49:23.336Z,98.20
2022-12-19T09:52:07.957Z,96.30
2022-12-19T09:54:52.925Z,98.90
2022-12-19T09:57:29.880Z,93.90
2022-12-19T10:00:28.458Z,94.60
2022-12-19T10:03:23.005Z,95.20
2022-12-19T10:07:08.711Z,95.30
2022-12-19T10:08:53.769Z,95.30
2022-12-19T10:12:48.254Z,95.20
2022-12-19T10:14:38.724Z,95.30
2022-12-19T10:17:27.058Z,95.40
2022-12-19T10:20:22.841Z,95.20
2022-12-19T10:23:16.697Z,95.60
2022-12-19T10:26:02.728Z,95.60
2022-12-19T10:28:33.001Z,97.80
2022-12-19T10:31:16.973Z,96.80
2022-12-19T10:34:02.560Z,97.50
2022-12-19T10:37:12.538Z,98.80
2022-12-19T10:39:29.635Z,95.30
2022-12-19T10:42:05.506Z,95.40
2022-12-19T10:44:34.926Z,95.10
2022-12-19T10:47:01.779Z,95.40
2022-12-19T10:49:31.637Z,95.50
2022-12-19T10:52:10.339Z,95.50
2022-12-19T10:54:41.014Z,95.40
2022-12-19T10:57:23.062Z,95.30
2022-12-19T11:00:17.505Z,94.90
2022-12-19T11:02:51.659Z,94.90
2022-12-19T11:05:24.638Z,94.50
2022-12-19T11:08:06.675Z,97.00
2022-12-19T11:11:20.319Z,99.80
2022-12-19T11:19:13.656Z,99.90
2022-12-19T11:20:51.463Z,96.90
2022-12-19T11:29:15.171Z,99.30
2022-12-19T11:29:33.805Z,99.60
2022-12-19T11:30:38.169Z,99.80
2022-12-19T11:30:44.123Z,99.80
2022-12-19T11:34:21.279Z,93.70
2022-12-19T11:37:14.336Z,93.50
2022-12-19T11:39:47.501Z,94.00
2022-12-19T11:42:30.969Z,94.10
2022-12-19T11:45:26.499Z,94.50
2022-12-19T11:48:01.563Z,94.40
2022-12-19T11:50:37.323Z,94.30
2022-12-19T11:53:48.259Z,94.00
2022-12-19T11:56:19.173Z,94.00
2022-12-19T11:58:50.449Z,94.20
2022-12-19T12:01:35.796Z,95.50
2022-12-19T12:04:49.408Z,98.70
2022-12-19T12:07:33.221Z,99.90
2022-12-19T12:15:25.203Z,99.90
2022-12-19T12:21:47.398Z,98.60
2022-12-19T12:27:43.822Z,98.70
2022-12-19T12:31:05.559Z,91.90
2022-12-19T12:31:14.912Z,92.00
2022-12-19T12:31:48.509Z,92.20
2022-12-19T12:32:00.366Z,92.00
2022-12-19T12:35:17.433Z,91.60
2022-12-19T12:38:32.309Z,91.40
2022-12-19T12:41:44.156Z,91.50
2022-12-19T12:44:12.586Z,91.70
2022-12-19T12:47:01.409Z,91.80
2022-12-19T12:49:46.556Z,91.60
2022-12-19T12:52:18.536Z,91.40
2022-12-19T12:54:49.008Z,91.40
2022-12-19T12:57:26.954Z,91.60
2022-12-19T13:00:34.138Z,91.50
2022-12-19T13:03:13.499Z,91.20
2022-12-19T13:05:46.452Z,91.40
2022-12-19T13:08:34.801Z,91.20
2022-12-19T13:11:11.585Z,91.00
2022-12-19T13:14:33.562Z,91.00
2022-12-19T13:17:04.185Z,90.70
2022-12-19T13:19:33.725Z,90.60
2022-12-19T13:22:09.471Z,90.90
2022-12-19T13:24:50.011Z,90.70
2022-12-19T13:27:19.559Z,90.50
2022-12-19T13:30:01.533Z,90.60
2022-12-19T13:32:53.492Z,90.30
2022-12-19T13:36:47.745Z,90.40
2022-12-19T13:39:59.351Z,90.70
2022-12-19T13:41:25.934Z,90.80
2022-12-19T13:43:59.261Z,90.70
2022-12-19T13:46:38.140Z,92.10
2022-12-19T13:49:32.929Z,93.90
2022-12-19T13:52:05.301Z,95.90
2022-12-19T13:54:44.678Z,95.30
2022-12-19T13:57:31.886Z,94.90
2022-12-19T14:00:02.533Z,95.80
2022-12-19T14:02:45.169Z,97.20
2022-12-19T14:05:53.336Z,92.10
2022-12-19T14:08:25.358Z,94.70
2022-12-19T14:11:33.482Z,89.20
2022-12-19T14:14:27.296Z,89.20
2022-12-19T14:16:56.277Z,88.40
2022-12-19T14:19:24.387Z,88.80
2022-12-19T14:22:08.640Z,88.80
2022-12-19T14:24:39.476Z,88.50
2022-12-19T14:28:21.684Z,88.60
2022-12-19T14:30:32.430Z,88.70
2022-12-19T14:33:46.857Z,88.40
2022-12-19T14:36:11.994Z,88.80
2022-12-19T14:39:22.026Z,89.20
2022-12-19T14:41:47.661Z,92.20
2022-12-19T14:54:02.056Z,88.50
2022-12-19T14:54:06.295Z,87.40
2022-12-19T14:54:13.739Z,88.20
2022-12-19T14:54:27.382Z,87.80
2022-12-19T14:58:58.245Z,87.50
2022-12-19T15:01:31.851Z,88.10
2022-12-19T15:04:49.513Z,88.60
2022-12-19T15:07:11.997Z,88.90
2022-12-19T15:11:03.012Z,88.80
2022-12-19T15:14:48.216Z,89.00
2022-12-19T15:15:58.894Z,89.40
2022-12-19T15:18:39.067Z,89.90
2022-12-19T15:21:09.614Z,89.80
2022-12-19T15:23:36.512Z,89.40
2022-12-19T15:26:29.409Z,90.10
2022-12-19T15:28:57.322Z,90.50
2022-12-19T15:31:41.694Z,90.70
2022-12-19T15:34:41.677Z,91.00
2022-12-19T15:37:15.564Z,91.40
2022-12-19T15:39:43.512Z,91.50
2022-12-19T15:42:19.829Z,91.90
2022-12-19T15:44:48.205Z,91.90
2022-12-19T15:47:36.878Z,92.20
2022-12-19T15:50:22.059Z,92.30
2022-12-19T15:52:49.068Z,92.20
2022-12-19T15:55:18.042Z,92.10
2022-12-19T15:57:49.173Z,92.20
2022-12-19T16:00:18.614Z,92.10
2022-12-19T16:05:33.572Z,91.90
2022-12-19T16:08:00.446Z,91.90
2022-12-19T16:10:27.369Z,91.70
2022-12-19T16:12:58.126Z,91.80
2022-12-19T16:15:29.446Z,91.50
2022-12-19T16:17:58.626Z,91.40
2022-12-19T16:20:28.044Z,90.80
2022-12-19T16:22:55.330Z,91.30
2022-12-19T16:25:24.820Z,91.20
2022-12-19T16:27:57.122Z,91.30
2022-12-19T16:30:28.801Z,91.20
2022-12-19T16:32:55.809Z,91.50
2022-12-19T16:35:54.984Z,91.70
2022-12-19T16:38:12.251Z,91.60
2022-12-19T16:40:39.645Z,91.80
2022-12-19T16:43:15.571Z,91.60
2022-12-19T16:45:43.742Z,91.30
2022-12-19T16:48:25.395Z,91.40
2022-12-19T16:50:52.538Z,91.40
2022-12-19T16:53:19.603Z,91.70
2022-12-19T16:55:48.213Z,91.60
2022-12-19T16:58:20.979Z,91.90
2022-12-19T17:00:48.346Z,91.60
2022-12-19T17:03:42.805Z,91.90
2022-12-19T17:06:18.091Z,91.90
2022-12-19T17:08:45.581Z,91.60
2022-12-19T17:11:25.183Z,91.60
2022-12-19T17:13:58.941Z,91.80
2022-12-19T17:16:25.919Z,91.70
2022-12-19T17:18:52.970Z,91.90
2022-12-19T17:21:22.525Z,91.80
2022-12-19T17:23:50.860Z,91.70
2022-12-19T17:26:21.142Z,91.80
2022-12-19T17:28:48.452Z,91.80
2022-12-19T17:31:28.257Z,91.80
2022-12-19T17:33:57.676Z,91.80
2022-12-19T17:36:36.681Z,91.90
2022-12-19T17:39:17.620Z,91.90
2022-12-19T17:41:48.211Z,91.90
2022-12-19T17:44:15.077Z,91.40
2022-12-19T17:46:42.405Z,91.50
2022-12-19T17:49:30.285Z,91.70
2022-12-19T17:51:58.557Z,91.50
2022-12-19T17:54:26.507Z,91.50
2022-12-19T17:56:53.580Z,92.00
2022-12-19T17:59:21.016Z,91.90
2022-12-19T18:01:50.228Z,92.20
2022-12-19T18:04:19.812Z,92.50
2022-12-19T18:06:49.997Z,92.40
2022-12-19T18:09:24.192Z,92.60
2022-12-19T18:11:52.759Z,92.50
2022-12-19T18:14:19.695Z,94.70
2022-12-19T18:16:47.386Z,92.70
2022-12-19T18:19:23.013Z,93.00
2022-12-19T18:21:50.189Z,93.00
2022-12-19T18:24:17.768Z,93.20
2022-12-19T18:26:45.320Z,93.60
2022-12-19T18:29:13.077Z,93.10
2022-12-19T18:31:46.446Z,93.10
2022-12-19T18:34:24.758Z,93.00
2022-12-19T18:36:54.087Z,92.60
2022-12-19T18:39:22.052Z,92.80
2022-12-19T18:41:50.247Z,92.80
2022-12-19T18:44:17.541Z,93.00
2022-12-19T18:46:45.265Z,93.30
2022-12-19T18:49:16.793Z,93.20
2022-12-19T18:51:44.852Z,93.00
2022-12-19T18:54:22.389Z,93.00
2022-12-19T18:56:49.310Z,93.00
2022-12-19T18:59:16.162Z,93.10
2022-12-19T19:01:47.626Z,93.30
2022-12-19T19:04:17.858Z,93.40
2022-12-19T19:06:50.983Z,93.80
2022-12-19T19:09:20.439Z,93.60
2022-12-19T19:12:06.082Z,93.90
2022-12-19T19:14:32.977Z,93.70
2022-12-19T19:16:59.900Z,93.80
2022-12-19T19:19:26.840Z,93.60
2022-12-19T19:21:54.328Z,93.50
2022-12-19T19:24:22.635Z,93.70
2022-12-19T19:26:49.736Z,94.10
2022-12-19T19:29:19.097Z,94.00
2022-12-19T19:31:48.698Z,94.00
2022-12-19T19:34:31.786Z,94.10
2022-12-19T19:37:02.217Z,93.80
2022-12-19T19:39:33.000Z,93.50
2022-12-19T19:42:01.129Z,93.20
2022-12-19T19:44:28.596Z,93.10
2022-12-19T19:46:55.505Z,93.30
2022-12-19T19:49:22.794Z,93.40
2022-12-19T19:51:50.085Z,93.50
2022-12-19T19:54:17.133Z,93.70
2022-12-19T19:56:44.111Z,93.50
2022-12-19T19:59:11.005Z,93.50
2022-12-19T20:01:38.044Z,93.50
2022-12-19T20:04:08.184Z,93.80
2022-12-19T20:06:35.007Z,94.10
2022-12-19T20:09:01.840Z,93.50
2022-12-19T20:11:28.719Z,93.70
2022-12-19T20:13:55.525Z,93.70
2022-12-19T20:16:22.733Z,95.00
2022-12-19T20:18:52.272Z,97.10
2022-12-19T20:21:21.025Z,99.90
2022-12-19T20:23:49.832Z,99.90
2022-12-19T20:26:19.321Z,99.40
2022-12-19T20:28:49.317Z,99.80
2022-12-19T20:31:18.529Z,95.30
2022-12-19T20:33:47.104Z,99.00
2022-12-19T20:36:14.689Z,99.80
2022-12-19T20:38:43.364Z,98.20
2022-12-19T20:41:11.182Z,99.00
2022-12-19T20:43:38.741Z,98.60
2022-12-19T20:46:14.898Z,92.80
2022-12-19T20:48:43.444Z,95.10
2022-12-19T20:51:11.037Z,97.10
2022-12-19T20:53:38.829Z,98.40
2022-12-19T20:56:07.916Z,98.30
2022-12-19T20:58:36.376Z,97.00
2022-12-19T21:01:07.749Z,95.70
2022-12-19T21:03:36.931Z,95.40
2022-12-19T21:06:05.430Z,95.80
2022-12-19T21:08:32.995Z,97.10
2022-12-19T21:11:01.087Z,96.60
2022-12-19T21:13:28.543Z,93.90
2022-12-19T21:16:01.885Z,96.90
2022-12-19T21:18:29.644Z,96.10
2022-12-19T21:20:56.742Z,96.90
2022-12-19T21:23:28.103Z,97.10
2022-12-19T21:26:00.001Z,96.70
2022-12-19T21:28:27.325Z,94.40
2022-12-19T21:31:18.347Z,95.70
2022-12-19T21:33:46.726Z,96.30
2022-12-19T21:36:19.000Z,96.10
2022-12-19T21:38:50.396Z,95.50
2022-12-19T21:41:20.337Z,97.40
2022-12-19T21:43:49.251Z,94.90
2022-12-19T21:46:17.998Z,97.90
2022-12-19T21:48:47.287Z,98.60
2022-12-19T21:51:19.618Z,96.40
2022-12-19T21:53:46.956Z,97.60
2022-12-19T21:56:30.199Z,99.00
2022-12-19T21:59:00.847Z,97.10
2022-12-19T22:01:28.622Z,99.90
2022-12-19T22:04:03.838Z,98.40
2022-12-19T22:06:32.002Z,95.80
2022-12-19T22:09:00.390Z,98.10
2022-12-19T22:11:30.837Z,99.60
2022-12-19T22:14:00.617Z,98.60
2022-12-19T22:16:28.563Z,97.80
2022-12-19T22:18:56.603Z,97.90
2022-12-19T22:21:26.218Z,97.50
2022-12-19T22:23:56.353Z,95.30
2022-12-19T22:26:24.324Z,97.70
2022-12-19T22:28:53.323Z,97.50
2022-12-19T22:31:22.166Z,96.70
2022-12-19T22:33:51.214Z,98.20
2022-12-19T22:36:25.801Z,93.60
2022-12-19T22:38:54.997Z,94.20
2022-12-19T22:41:21.980Z,96.30
2022-12-19T22:43:52.132Z,93.30
2022-12-19T22:46:27.506Z,97.00
2022-12-19T22:48:57.107Z,95.20
2022-12-19T22:51:25.164Z,96.40
2022-12-19T22:53:52.430Z,96.30
2022-12-19T22:56:21.835Z,95.20
2022-12-19T22:58:50.979Z,96.20
2022-12-19T23:01:26.297Z,94.30
2022-12-19T23:03:58.093Z,97.40
2022-12-19T23:06:27.781Z,96.70
2022-12-19T23:08:54.688Z,95.10
2022-12-19T23:11:25.180Z,96.90
2022-12-19T23:13:52.091Z,88.40
2022-12-19T23:16:22.064Z,88.00
2022-12-19T23:18:48.967Z,89.00
2022-12-19T23:21:21.868Z,90.10
2022-12-19T23:23:51.472Z,92.50
2022-12-19T23:26:28.478Z,95.80
2022-12-19T23:29:15.220Z,97.70
2022-12-19T23:31:44.781Z,91.50
2022-12-19T23:34:12.783Z,91.10
